sensor_id;sensor_type;location;lat;lon;timestamp;P1;durP1;ratioP1;P2;durP2;ratioP2
5742;SDS011;2896;53.500;10.020;2022-11-20T00:02:09;10.47;;;6.87;;
5742;SDS011;2896;53.500;10.020;2022-11-20T00:04:36;8.13;;;6.53;;
5742;SDS011;2896;53.500;10.020;2022-11-20T00:07:02;8.83;;;7.40;;
5742;SDS011;2896;53.500;10.020;2022-11-20T00:09:29;17.50;;;8.07;;
5742;SDS011;2896;53.500;10.020;2022-11-20T00:11:56;10.33;;;7.37;;
5742;SDS011;2896;53.500;10.020;2022-11-20T00:14:22;9.40;;;7.50;;
5742;SDS011;2896;53.500;10.020;2022-11-20T00:16:51;7.63;;;6.87;;
5742;SDS011;2896;53.500;10.020;2022-11-20T00:19:17;10.77;;;7.80;;
5742;SDS011;2896;53.500;10.020;2022-11-20T00:21:44;8.00;;;7.20;;
5742;SDS011;2896;53.500;10.020;2022-11-20T00:24:10;8.10;;;6.57;;
5742;SDS011;2896;53.500;10.020;2022-11-20T00:26:37;12.47;;;7.13;;
5742;SDS011;2896;53.500;10.020;2022-11-20T00:29:04;8.27;;;6.80;;
5742;SDS011;2896;53.500;10.020;2022-11-20T00:31:31;6.57;;;5.97;;
5742;SDS011;2896;53.500;10.020;2022-11-20T00:33:59;7.27;;;6.53;;
5742;SDS011;2896;53.500;10.020;2022-11-20T00:36:26;8.37;;;6.23;;
5742;SDS011;2896;53.500;10.020;2022-11-20T00:38:55;10.53;;;7.17;;
5742;SDS011;2896;53.500;10.020;2022-11-20T00:41:23;7.47;;;6.77;;
5742;SDS011;2896;53.500;10.020;2022-11-20T00:43:51;8.40;;;7.13;;
5742;SDS011;2896;53.500;10.020;2022-11-20T00:46:19;11.40;;;7.60;;
5742;SDS011;2896;53.500;10.020;2022-11-20T00:48:47;8.60;;;7.27;;
5742;SDS011;2896;53.500;10.020;2022-11-20T00:51:16;10.03;;;7.67;;
5742;SDS011;2896;53.500;10.020;2022-11-20T00:53:44;7.13;;;6.37;;
5742;SDS011;2896;53.500;10.020;2022-11-20T00:56:12;7.93;;;6.27;;
5742;SDS011;2896;53.500;10.020;2022-11-20T00:58:40;13.40;;;6.63;;
5742;SDS011;2896;53.500;10.020;2022-11-20T01:01:09;8.80;;;7.90;;
5742;SDS011;2896;53.500;10.020;2022-11-20T01:03:37;9.60;;;8.60;;
5742;SDS011;2896;53.500;10.020;2022-11-20T01:06:06;10.77;;;8.30;;
5742;SDS011;2896;53.500;10.020;2022-11-20T01:08:37;9.77;;;8.30;;
5742;SDS011;2896;53.500;10.020;2022-11-20T01:11:05;8.17;;;6.67;;
5742;SDS011;2896;53.500;10.020;2022-11-20T01:13:33;11.00;;;7.77;;
5742;SDS011;2896;53.500;10.020;2022-11-20T01:16:04;9.37;;;7.33;;
5742;SDS011;2896;53.500;10.020;2022-11-20T01:18:31;7.50;;;6.70;;
5742;SDS011;2896;53.500;10.020;2022-11-20T01:21:02;11.23;;;6.60;;
5742;SDS011;2896;53.500;10.020;2022-11-20T01:23:30;8.50;;;6.80;;
5742;SDS011;2896;53.500;10.020;2022-11-20T01:26:00;13.47;;;6.90;;
5742;SDS011;2896;53.500;10.020;2022-11-20T01:28:28;7.90;;;6.87;;
5742;SDS011;2896;53.500;10.020;2022-11-20T01:30:55;7.53;;;6.30;;
5742;SDS011;2896;53.500;10.020;2022-11-20T01:33:23;7.37;;;6.20;;
5742;SDS011;2896;53.500;10.020;2022-11-20T01:35:49;7.60;;;6.20;;
5742;SDS011;2896;53.500;10.020;2022-11-20T01:38:16;6.60;;;5.90;;
5742;SDS011;2896;53.500;10.020;2022-11-20T01:40:43;8.00;;;6.17;;
5742;SDS011;2896;53.500;10.020;2022-11-20T01:43:12;9.10;;;6.50;;
5742;SDS011;2896;53.500;10.020;2022-11-20T01:45:56;7.70;;;6.43;;
5742;SDS011;2896;53.500;10.020;2022-11-20T01:48:40;6.80;;;6.10;;
5742;SDS011;2896;53.500;10.020;2022-11-20T01:51:12;6.47;;;5.73;;
5742;SDS011;2896;53.500;10.020;2022-11-20T01:53:45;6.87;;;6.23;;
5742;SDS011;2896;53.500;10.020;2022-11-20T01:56:12;5.97;;;5.40;;
5742;SDS011;2896;53.500;10.020;2022-11-20T01:58:43;11.17;;;6.37;;
5742;SDS011;2896;53.500;10.020;2022-11-20T02:01:15;19.13;;;6.00;;
5742;SDS011;2896;53.500;10.020;2022-11-20T02:03:41;8.83;;;6.17;;
5742;SDS011;2896;53.500;10.020;2022-11-20T02:06:11;9.20;;;7.60;;
5742;SDS011;2896;53.500;10.020;2022-11-20T02:08:42;10.40;;;6.20;;
5742;SDS011;2896;53.500;10.020;2022-11-20T02:11:09;8.97;;;6.67;;
5742;SDS011;2896;53.500;10.020;2022-11-20T02:13:37;9.63;;;7.33;;
5742;SDS011;2896;53.500;10.020;2022-11-20T02:16:14;7.17;;;6.47;;
5742;SDS011;2896;53.500;10.020;2022-11-20T02:18:43;7.77;;;6.70;;
5742;SDS011;2896;53.500;10.020;2022-11-20T02:21:13;7.70;;;6.97;;
5742;SDS011;2896;53.500;10.020;2022-11-20T02:23:54;7.27;;;6.50;;
5742;SDS011;2896;53.500;10.020;2022-11-20T02:26:31;6.97;;;6.20;;
5742;SDS011;2896;53.500;10.020;2022-11-20T02:29:00;8.90;;;6.80;;
5742;SDS011;2896;53.500;10.020;2022-11-20T02:31:28;11.77;;;7.60;;
5742;SDS011;2896;53.500;10.020;2022-11-20T02:33:55;6.40;;;5.90;;
5742;SDS011;2896;53.500;10.020;2022-11-20T02:36:23;6.97;;;6.33;;
5742;SDS011;2896;53.500;10.020;2022-11-20T02:38:52;8.07;;;6.40;;
5742;SDS011;2896;53.500;10.020;2022-11-20T02:41:20;5.73;;;5.33;;
5742;SDS011;2896;53.500;10.020;2022-11-20T02:43:47;9.20;;;6.17;;
5742;SDS011;2896;53.500;10.020;2022-11-20T02:46:14;9.00;;;6.90;;
5742;SDS011;2896;53.500;10.020;2022-11-20T02:48:40;8.20;;;6.70;;
5742;SDS011;2896;53.500;10.020;2022-11-20T02:51:07;10.90;;;6.70;;
5742;SDS011;2896;53.500;10.020;2022-11-20T02:53:33;6.87;;;6.17;;
5742;SDS011;2896;53.500;10.020;2022-11-20T02:56:00;6.90;;;6.00;;
5742;SDS011;2896;53.500;10.020;2022-11-20T02:58:28;6.77;;;6.07;;
5742;SDS011;2896;53.500;10.020;2022-11-20T03:00:55;7.50;;;6.67;;
5742;SDS011;2896;53.500;10.020;2022-11-20T03:03:21;9.50;;;6.67;;
5742;SDS011;2896;53.500;10.020;2022-11-20T03:05:48;7.10;;;6.40;;
5742;SDS011;2896;53.500;10.020;2022-11-20T03:08:15;9.27;;;5.63;;
5742;SDS011;2896;53.500;10.020;2022-11-20T03:10:41;8.80;;;6.70;;
5742;SDS011;2896;53.500;10.020;2022-11-20T03:13:08;7.90;;;6.53;;
5742;SDS011;2896;53.500;10.020;2022-11-20T03:15:36;9.10;;;7.13;;
5742;SDS011;2896;53.500;10.020;2022-11-20T03:18:03;6.60;;;6.10;;
5742;SDS011;2896;53.500;10.020;2022-11-20T03:20:32;6.27;;;5.67;;
5742;SDS011;2896;53.500;10.020;2022-11-20T03:22:59;7.50;;;5.87;;
5742;SDS011;2896;53.500;10.020;2022-11-20T03:25:26;9.00;;;6.53;;
5742;SDS011;2896;53.500;10.020;2022-11-20T03:27:53;9.67;;;6.63;;
5742;SDS011;2896;53.500;10.020;2022-11-20T03:30:20;7.87;;;7.13;;
5742;SDS011;2896;53.500;10.020;2022-11-20T03:32:48;10.53;;;7.53;;
5742;SDS011;2896;53.500;10.020;2022-11-20T03:35:18;6.67;;;6.00;;
5742;SDS011;2896;53.500;10.020;2022-11-20T03:37:45;10.40;;;7.10;;
5742;SDS011;2896;53.500;10.020;2022-11-20T03:40:12;7.40;;;6.00;;
5742;SDS011;2896;53.500;10.020;2022-11-20T03:42:38;7.30;;;6.47;;
5742;SDS011;2896;53.500;10.020;2022-11-20T03:45:11;6.50;;;5.90;;
5742;SDS011;2896;53.500;10.020;2022-11-20T03:47:39;7.40;;;5.97;;
5742;SDS011;2896;53.500;10.020;2022-11-20T03:50:07;5.87;;;5.37;;
5742;SDS011;2896;53.500;10.020;2022-11-20T03:52:35;7.33;;;6.03;;
5742;SDS011;2896;53.500;10.020;2022-11-20T03:55:01;10.00;;;6.30;;
5742;SDS011;2896;53.500;10.020;2022-11-20T03:57:28;6.90;;;5.80;;
5742;SDS011;2896;53.500;10.020;2022-11-20T03:59:55;5.77;;;5.27;;
5742;SDS011;2896;53.500;10.020;2022-11-20T04:02:22;6.33;;;5.70;;
5742;SDS011;2896;53.500;10.020;2022-11-20T04:04:48;8.70;;;6.73;;
5742;SDS011;2896;53.500;10.020;2022-11-20T04:07:16;7.07;;;5.40;;
5742;SDS011;2896;53.500;10.020;2022-11-20T04:09:43;8.00;;;6.10;;
5742;SDS011;2896;53.500;10.020;2022-11-20T04:12:10;8.83;;;6.40;;
5742;SDS011;2896;53.500;10.020;2022-11-20T04:14:37;7.33;;;5.97;;
5742;SDS011;2896;53.500;10.020;2022-11-20T04:17:03;5.73;;;5.23;;
5742;SDS011;2896;53.500;10.020;2022-11-20T04:19:30;7.67;;;6.90;;
5742;SDS011;2896;53.500;10.020;2022-11-20T04:21:57;6.30;;;5.30;;
5742;SDS011;2896;53.500;10.020;2022-11-20T04:24:25;7.27;;;6.17;;
5742;SDS011;2896;53.500;10.020;2022-11-20T04:26:52;5.47;;;5.00;;
5742;SDS011;2896;53.500;10.020;2022-11-20T04:29:19;5.27;;;4.87;;
5742;SDS011;2896;53.500;10.020;2022-11-20T04:31:45;6.40;;;5.23;;
5742;SDS011;2896;53.500;10.020;2022-11-20T04:34:12;7.80;;;5.90;;
5742;SDS011;2896;53.500;10.020;2022-11-20T04:36:38;8.50;;;6.00;;
5742;SDS011;2896;53.500;10.020;2022-11-20T04:39:05;6.27;;;5.67;;
5742;SDS011;2896;53.500;10.020;2022-11-20T04:41:35;8.80;;;6.67;;
5742;SDS011;2896;53.500;10.020;2022-11-20T04:44:03;8.13;;;6.23;;
5742;SDS011;2896;53.500;10.020;2022-11-20T04:46:31;10.80;;;6.43;;
5742;SDS011;2896;53.500;10.020;2022-11-20T04:48:59;6.60;;;5.67;;
5742;SDS011;2896;53.500;10.020;2022-11-20T04:51:26;7.27;;;6.33;;
5742;SDS011;2896;53.500;10.020;2022-11-20T04:53:53;8.53;;;6.47;;
5742;SDS011;2896;53.500;10.020;2022-11-20T04:56:20;6.63;;;6.07;;
5742;SDS011;2896;53.500;10.020;2022-11-20T04:58:48;7.00;;;6.30;;
5742;SDS011;2896;53.500;10.020;2022-11-20T05:01:15;6.90;;;6.30;;
5742;SDS011;2896;53.500;10.020;2022-11-20T05:03:44;5.80;;;5.40;;
5742;SDS011;2896;53.500;10.020;2022-11-20T05:06:11;7.13;;;6.13;;
5742;SDS011;2896;53.500;10.020;2022-11-20T05:08:40;8.70;;;6.90;;
5742;SDS011;2896;53.500;10.020;2022-11-20T05:11:07;6.23;;;5.50;;
5742;SDS011;2896;53.500;10.020;2022-11-20T05:13:35;6.07;;;5.53;;
5742;SDS011;2896;53.500;10.020;2022-11-20T05:16:05;6.27;;;5.77;;
5742;SDS011;2896;53.500;10.020;2022-11-20T05:18:33;9.47;;;6.57;;
5742;SDS011;2896;53.500;10.020;2022-11-20T05:20:59;9.90;;;6.30;;
5742;SDS011;2896;53.500;10.020;2022-11-20T05:23:26;6.43;;;5.80;;
5742;SDS011;2896;53.500;10.020;2022-11-20T05:25:55;7.03;;;6.50;;
5742;SDS011;2896;53.500;10.020;2022-11-20T05:28:23;9.43;;;6.80;;
5742;SDS011;2896;53.500;10.020;2022-11-20T05:30:50;6.77;;;6.13;;
5742;SDS011;2896;53.500;10.020;2022-11-20T05:33:18;8.20;;;5.97;;
5742;SDS011;2896;53.500;10.020;2022-11-20T05:35:45;8.67;;;6.30;;
5742;SDS011;2896;53.500;10.020;2022-11-20T05:38:13;6.63;;;6.07;;
5742;SDS011;2896;53.500;10.020;2022-11-20T05:40:39;7.73;;;5.90;;
5742;SDS011;2896;53.500;10.020;2022-11-20T05:43:06;7.90;;;6.23;;
5742;SDS011;2896;53.500;10.020;2022-11-20T05:45:32;7.87;;;5.97;;
5742;SDS011;2896;53.500;10.020;2022-11-20T05:47:59;8.37;;;7.40;;
5742;SDS011;2896;53.500;10.020;2022-11-20T05:50:28;11.23;;;6.30;;
5742;SDS011;2896;53.500;10.020;2022-11-20T05:52:54;9.23;;;6.37;;
5742;SDS011;2896;53.500;10.020;2022-11-20T05:55:23;6.63;;;6.00;;
5742;SDS011;2896;53.500;10.020;2022-11-20T05:57:50;7.17;;;6.47;;
5742;SDS011;2896;53.500;10.020;2022-11-20T06:00:18;7.43;;;6.57;;
5742;SDS011;2896;53.500;10.020;2022-11-20T06:02:45;7.80;;;7.10;;
5742;SDS011;2896;53.500;10.020;2022-11-20T06:05:12;6.33;;;5.73;;
5742;SDS011;2896;53.500;10.020;2022-11-20T06:07:40;8.30;;;7.47;;
5742;SDS011;2896;53.500;10.020;2022-11-20T06:10:07;7.20;;;6.57;;
5742;SDS011;2896;53.500;10.020;2022-11-20T06:12:34;10.13;;;6.70;;
5742;SDS011;2896;53.500;10.020;2022-11-20T06:15:00;7.93;;;7.00;;
5742;SDS011;2896;53.500;10.020;2022-11-20T06:17:27;6.97;;;5.93;;
5742;SDS011;2896;53.500;10.020;2022-11-20T06:19:54;6.87;;;6.20;;
5742;SDS011;2896;53.500;10.020;2022-11-20T06:22:20;7.77;;;6.50;;
5742;SDS011;2896;53.500;10.020;2022-11-20T06:24:48;8.10;;;6.90;;
5742;SDS011;2896;53.500;10.020;2022-11-20T06:29:43;7.07;;;6.03;;
5742;SDS011;2896;53.500;10.020;2022-11-20T06:32:10;8.87;;;6.90;;
5742;SDS011;2896;53.500;10.020;2022-11-20T06:34:36;7.03;;;6.20;;
5742;SDS011;2896;53.500;10.020;2022-11-20T06:37:03;6.77;;;6.17;;
5742;SDS011;2896;53.500;10.020;2022-11-20T06:39:29;7.87;;;6.27;;
5742;SDS011;2896;53.500;10.020;2022-11-20T06:41:57;17.10;;;6.50;;
5742;SDS011;2896;53.500;10.020;2022-11-20T06:44:24;13.47;;;7.00;;
5742;SDS011;2896;53.500;10.020;2022-11-20T06:46:51;6.73;;;6.00;;
5742;SDS011;2896;53.500;10.020;2022-11-20T06:49:17;10.47;;;6.30;;
5742;SDS011;2896;53.500;10.020;2022-11-20T06:51:44;12.03;;;6.30;;
5742;SDS011;2896;53.500;10.020;2022-11-20T06:54:11;10.97;;;6.13;;
5742;SDS011;2896;53.500;10.020;2022-11-20T06:56:37;7.77;;;6.70;;
5742;SDS011;2896;53.500;10.020;2022-11-20T06:59:06;9.37;;;7.00;;
5742;SDS011;2896;53.500;10.020;2022-11-20T07:01:33;9.63;;;6.40;;
5742;SDS011;2896;53.500;10.020;2022-11-20T07:04:00;6.80;;;6.20;;
5742;SDS011;2896;53.500;10.020;2022-11-20T07:06:27;7.00;;;6.13;;
5742;SDS011;2896;53.500;10.020;2022-11-20T07:08:54;8.10;;;6.80;;
5742;SDS011;2896;53.500;10.020;2022-11-20T07:11:21;7.60;;;6.90;;
5742;SDS011;2896;53.500;10.020;2022-11-20T07:13:47;7.13;;;6.43;;
5742;SDS011;2896;53.500;10.020;2022-11-20T07:16:15;9.83;;;6.77;;
5742;SDS011;2896;53.500;10.020;2022-11-20T07:18:42;12.33;;;6.97;;
5742;SDS011;2896;53.500;10.020;2022-11-20T07:21:09;9.30;;;7.73;;
5742;SDS011;2896;53.500;10.020;2022-11-20T07:23:36;10.83;;;6.53;;
5742;SDS011;2896;53.500;10.020;2022-11-20T07:26:03;10.10;;;8.17;;
5742;SDS011;2896;53.500;10.020;2022-11-20T07:28:31;8.93;;;7.40;;
5742;SDS011;2896;53.500;10.020;2022-11-20T07:30:57;12.07;;;7.60;;
5742;SDS011;2896;53.500;10.020;2022-11-20T07:33:25;10.60;;;7.27;;
5742;SDS011;2896;53.500;10.020;2022-11-20T07:35:52;8.97;;;7.10;;
5742;SDS011;2896;53.500;10.020;2022-11-20T07:38:19;12.70;;;8.17;;
5742;SDS011;2896;53.500;10.020;2022-11-20T07:40:45;10.20;;;7.60;;
5742;SDS011;2896;53.500;10.020;2022-11-20T07:43:12;16.83;;;8.13;;
5742;SDS011;2896;53.500;10.020;2022-11-20T07:45:39;7.63;;;6.80;;
5742;SDS011;2896;53.500;10.020;2022-11-20T07:48:05;14.70;;;7.47;;
5742;SDS011;2896;53.500;10.020;2022-11-20T07:50:33;8.20;;;6.70;;
5742;SDS011;2896;53.500;10.020;2022-11-20T07:53:00;12.73;;;7.23;;
5742;SDS011;2896;53.500;10.020;2022-11-20T07:55:28;13.03;;;7.67;;
5742;SDS011;2896;53.500;10.020;2022-11-20T07:57:55;11.43;;;6.97;;
5742;SDS011;2896;53.500;10.020;2022-11-20T08:00:22;8.70;;;7.20;;
5742;SDS011;2896;53.500;10.020;2022-11-20T08:02:49;8.47;;;7.57;;
5742;SDS011;2896;53.500;10.020;2022-11-20T08:05:15;11.90;;;8.63;;
5742;SDS011;2896;53.500;10.020;2022-11-20T08:07:44;10.37;;;8.20;;
5742;SDS011;2896;53.500;10.020;2022-11-20T08:10:11;12.20;;;9.17;;
5742;SDS011;2896;53.500;10.020;2022-11-20T08:12:43;11.03;;;8.90;;
5742;SDS011;2896;53.500;10.020;2022-11-20T08:15:28;11.43;;;9.50;;
5742;SDS011;2896;53.500;10.020;2022-11-20T08:17:58;13.30;;;8.23;;
5742;SDS011;2896;53.500;10.020;2022-11-20T08:20:26;13.73;;;9.30;;
5742;SDS011;2896;53.500;10.020;2022-11-20T08:22:58;14.30;;;9.33;;
5742;SDS011;2896;53.500;10.020;2022-11-20T08:25:25;14.60;;;9.33;;
5742;SDS011;2896;53.500;10.020;2022-11-20T08:27:52;15.40;;;9.27;;
5742;SDS011;2896;53.500;10.020;2022-11-20T08:30:19;13.13;;;9.73;;
5742;SDS011;2896;53.500;10.020;2022-11-20T08:32:45;14.97;;;11.10;;
5742;SDS011;2896;53.500;10.020;2022-11-20T08:35:12;14.97;;;9.70;;
5742;SDS011;2896;53.500;10.020;2022-11-20T08:37:39;20.50;;;11.33;;
5742;SDS011;2896;53.500;10.020;2022-11-20T08:40:08;16.67;;;11.40;;
5742;SDS011;2896;53.500;10.020;2022-11-20T08:42:36;12.77;;;9.63;;
5742;SDS011;2896;53.500;10.020;2022-11-20T08:45:03;13.10;;;10.27;;
5742;SDS011;2896;53.500;10.020;2022-11-20T08:47:30;14.27;;;9.67;;
5742;SDS011;2896;53.500;10.020;2022-11-20T08:49:57;10.80;;;9.13;;
5742;SDS011;2896;53.500;10.020;2022-11-20T08:52:23;14.43;;;10.23;;
5742;SDS011;2896;53.500;10.020;2022-11-20T08:54:50;12.37;;;8.90;;
5742;SDS011;2896;53.500;10.020;2022-11-20T08:57:18;12.30;;;9.23;;
5742;SDS011;2896;53.500;10.020;2022-11-20T08:59:45;8.73;;;7.57;;
5742;SDS011;2896;53.500;10.020;2022-11-20T09:02:11;7.50;;;6.80;;
5742;SDS011;2896;53.500;10.020;2022-11-20T09:04:38;7.20;;;6.50;;
5742;SDS011;2896;53.500;10.020;2022-11-20T09:07:05;7.30;;;6.60;;
5742;SDS011;2896;53.500;10.020;2022-11-20T09:09:31;8.33;;;7.40;;
5742;SDS011;2896;53.500;10.020;2022-11-20T09:11:58;10.63;;;7.10;;
5742;SDS011;2896;53.500;10.020;2022-11-20T09:14:26;9.70;;;7.70;;
5742;SDS011;2896;53.500;10.020;2022-11-20T09:16:55;6.87;;;6.30;;
5742;SDS011;2896;53.500;10.020;2022-11-20T09:19:21;7.70;;;6.30;;
5742;SDS011;2896;53.500;10.020;2022-11-20T09:21:50;8.07;;;5.40;;
5742;SDS011;2896;53.500;10.020;2022-11-20T09:24:16;5.40;;;5.00;;
5742;SDS011;2896;53.500;10.020;2022-11-20T09:26:43;5.83;;;5.43;;
5742;SDS011;2896;53.500;10.020;2022-11-20T09:29:10;5.43;;;4.93;;
5742;SDS011;2896;53.500;10.020;2022-11-20T09:31:38;5.47;;;4.93;;
5742;SDS011;2896;53.500;10.020;2022-11-20T09:34:05;4.77;;;4.50;;
5742;SDS011;2896;53.500;10.020;2022-11-20T09:36:32;10.63;;;5.80;;
5742;SDS011;2896;53.500;10.020;2022-11-20T09:38:58;4.50;;;4.20;;
5742;SDS011;2896;53.500;10.020;2022-11-20T09:41:33;4.43;;;4.13;;
5742;SDS011;2896;53.500;10.020;2022-11-20T09:44:19;4.27;;;3.90;;
5742;SDS011;2896;53.500;10.020;2022-11-20T09:47:01;4.40;;;4.00;;
5742;SDS011;2896;53.500;10.020;2022-11-20T09:49:35;3.83;;;3.63;;
5742;SDS011;2896;53.500;10.020;2022-11-20T09:52:16;8.27;;;6.63;;
5742;SDS011;2896;53.500;10.020;2022-11-20T09:54:48;6.73;;;6.03;;
5742;SDS011;2896;53.500;10.020;2022-11-20T09:57:17;6.30;;;5.70;;
5742;SDS011;2896;53.500;10.020;2022-11-20T09:59:48;8.33;;;6.53;;
5742;SDS011;2896;53.500;10.020;2022-11-20T10:02:26;6.57;;;6.00;;
5742;SDS011;2896;53.500;10.020;2022-11-20T10:04:56;6.77;;;6.17;;
5742;SDS011;2896;53.500;10.020;2022-11-20T10:07:27;6.43;;;5.83;;
5742;SDS011;2896;53.500;10.020;2022-11-20T10:09:59;6.97;;;6.37;;
5742;SDS011;2896;53.500;10.020;2022-11-20T10:12:27;7.00;;;6.03;;
5742;SDS011;2896;53.500;10.020;2022-11-20T10:15:06;6.20;;;5.10;;
5742;SDS011;2896;53.500;10.020;2022-11-20T10:17:55;5.57;;;4.70;;
5742;SDS011;2896;53.500;10.020;2022-11-20T10:20:43;4.40;;;4.10;;
5742;SDS011;2896;53.500;10.020;2022-11-20T10:23:26;4.10;;;3.90;;
5742;SDS011;2896;53.500;10.020;2022-11-20T10:26:06;3.73;;;3.53;;
5742;SDS011;2896;53.500;10.020;2022-11-20T10:28:46;3.43;;;3.33;;
5742;SDS011;2896;53.500;10.020;2022-11-20T10:31:26;4.30;;;4.07;;
5742;SDS011;2896;53.500;10.020;2022-11-20T10:33:58;3.60;;;3.40;;
5742;SDS011;2896;53.500;10.020;2022-11-20T10:36:27;3.57;;;3.37;;
5742;SDS011;2896;53.500;10.020;2022-11-20T10:38:56;4.17;;;3.87;;
5742;SDS011;2896;53.500;10.020;2022-11-20T10:41:30;3.70;;;3.50;;
5742;SDS011;2896;53.500;10.020;2022-11-20T10:44:02;4.03;;;3.70;;
5742;SDS011;2896;53.500;10.020;2022-11-20T10:46:34;3.73;;;3.53;;
5742;SDS011;2896;53.500;10.020;2022-11-20T10:49:12;3.33;;;3.23;;
5742;SDS011;2896;53.500;10.020;2022-11-20T10:51:42;3.90;;;3.70;;
5742;SDS011;2896;53.500;10.020;2022-11-20T10:54:19;5.90;;;3.70;;
5742;SDS011;2896;53.500;10.020;2022-11-20T10:56:56;3.97;;;3.67;;
5742;SDS011;2896;53.500;10.020;2022-11-20T10:59:39;3.67;;;3.53;;
5742;SDS011;2896;53.500;10.020;2022-11-20T11:02:14;3.90;;;3.60;;
5742;SDS011;2896;53.500;10.020;2022-11-20T11:04:44;4.60;;;4.17;;
5742;SDS011;2896;53.500;10.020;2022-11-20T11:07:14;3.70;;;3.60;;
5742;SDS011;2896;53.500;10.020;2022-11-20T11:09:44;4.13;;;3.90;;
5742;SDS011;2896;53.500;10.020;2022-11-20T11:12:15;4.53;;;4.13;;
5742;SDS011;2896;53.500;10.020;2022-11-20T11:14:42;4.37;;;4.10;;
5742;SDS011;2896;53.500;10.020;2022-11-20T11:17:20;4.40;;;4.10;;
5742;SDS011;2896;53.500;10.020;2022-11-20T11:20:06;4.20;;;3.90;;
5742;SDS011;2896;53.500;10.020;2022-11-20T11:22:43;4.30;;;3.90;;
5742;SDS011;2896;53.500;10.020;2022-11-20T11:25:18;3.90;;;3.70;;
5742;SDS011;2896;53.500;10.020;2022-11-20T11:27:54;3.80;;;3.50;;
5742;SDS011;2896;53.500;10.020;2022-11-20T11:30:22;4.63;;;4.23;;
5742;SDS011;2896;53.500;10.020;2022-11-20T11:32:50;4.70;;;4.30;;
5742;SDS011;2896;53.500;10.020;2022-11-20T11:35:22;4.90;;;4.50;;
5742;SDS011;2896;53.500;10.020;2022-11-20T11:37:50;3.80;;;3.63;;
5742;SDS011;2896;53.500;10.020;2022-11-20T11:40:19;4.30;;;4.00;;
5742;SDS011;2896;53.500;10.020;2022-11-20T11:42:49;4.53;;;4.20;;
5742;SDS011;2896;53.500;10.020;2022-11-20T11:45:19;4.27;;;3.87;;
5742;SDS011;2896;53.500;10.020;2022-11-20T11:47:46;4.67;;;4.30;;
5742;SDS011;2896;53.500;10.020;2022-11-20T11:50:16;7.90;;;4.20;;
5742;SDS011;2896;53.500;10.020;2022-11-20T11:52:47;3.90;;;3.63;;
5742;SDS011;2896;53.500;10.020;2022-11-20T11:55:22;5.60;;;4.27;;
5742;SDS011;2896;53.500;10.020;2022-11-20T11:57:55;5.00;;;4.27;;
5742;SDS011;2896;53.500;10.020;2022-11-20T12:00:32;3.90;;;3.70;;
5742;SDS011;2896;53.500;10.020;2022-11-20T12:03:05;5.10;;;4.80;;
5742;SDS011;2896;53.500;10.020;2022-11-20T12:05:40;4.23;;;4.03;;
5742;SDS011;2896;53.500;10.020;2022-11-20T12:08:13;6.23;;;4.50;;
5742;SDS011;2896;53.500;10.020;2022-11-20T12:10:45;3.80;;;3.70;;
5742;SDS011;2896;53.500;10.020;2022-11-20T12:13:26;4.73;;;4.23;;
5742;SDS011;2896;53.500;10.020;2022-11-20T12:16:03;4.53;;;4.13;;
5742;SDS011;2896;53.500;10.020;2022-11-20T12:18:30;4.43;;;4.13;;
5742;SDS011;2896;53.500;10.020;2022-11-20T12:21:02;5.13;;;3.97;;
5742;SDS011;2896;53.500;10.020;2022-11-20T12:23:39;4.23;;;3.73;;
5742;SDS011;2896;53.500;10.020;2022-11-20T12:26:31;4.37;;;4.07;;
5742;SDS011;2896;53.500;10.020;2022-11-20T12:29:09;4.67;;;4.37;;
5742;SDS011;2896;53.500;10.020;2022-11-20T12:31:44;4.50;;;4.20;;
5742;SDS011;2896;53.500;10.020;2022-11-20T12:37:13;4.53;;;4.20;;
5742;SDS011;2896;53.500;10.020;2022-11-20T12:39:51;4.47;;;3.80;;
5742;SDS011;2896;53.500;10.020;2022-11-20T12:42:36;3.10;;;2.80;;
5742;SDS011;2896;53.500;10.020;2022-11-20T12:45:34;2.97;;;2.87;;
5742;SDS011;2896;53.500;10.020;2022-11-20T12:48:35;2.97;;;2.87;;
5742;SDS011;2896;53.500;10.020;2022-11-20T12:51:31;9.20;;;3.60;;
5742;SDS011;2896;53.500;10.020;2022-11-20T12:54:13;2.93;;;2.73;;
5742;SDS011;2896;53.500;10.020;2022-11-20T12:56:56;3.27;;;3.07;;
5742;SDS011;2896;53.500;10.020;2022-11-20T12:59:32;3.20;;;3.07;;
5742;SDS011;2896;53.500;10.020;2022-11-20T13:02:13;2.80;;;2.70;;
5742;SDS011;2896;53.500;10.020;2022-11-20T13:04:55;3.03;;;2.93;;
5742;SDS011;2896;53.500;10.020;2022-11-20T13:07:34;4.03;;;2.60;;
5742;SDS011;2896;53.500;10.020;2022-11-20T13:10:01;2.90;;;2.80;;
5742;SDS011;2896;53.500;10.020;2022-11-20T13:12:33;3.30;;;3.17;;
5742;SDS011;2896;53.500;10.020;2022-11-20T13:15:03;3.50;;;3.40;;
5742;SDS011;2896;53.500;10.020;2022-11-20T13:17:37;4.80;;;4.30;;
5742;SDS011;2896;53.500;10.020;2022-11-20T13:20:11;3.33;;;2.73;;
5742;SDS011;2896;53.500;10.020;2022-11-20T13:22:43;4.30;;;3.90;;
5742;SDS011;2896;53.500;10.020;2022-11-20T13:25:21;17.00;;;7.77;;
5742;SDS011;2896;53.500;10.020;2022-11-20T13:27:50;3.67;;;3.37;;
5742;SDS011;2896;53.500;10.020;2022-11-20T13:30:19;14.23;;;6.77;;
5742;SDS011;2896;53.500;10.020;2022-11-20T13:32:53;6.87;;;4.90;;
5742;SDS011;2896;53.500;10.020;2022-11-20T13:35:26;14.30;;;5.30;;
5742;SDS011;2896;53.500;10.020;2022-11-20T13:38:05;2.83;;;2.73;;
5742;SDS011;2896;53.500;10.020;2022-11-20T13:40:33;4.57;;;4.23;;
5742;SDS011;2896;53.500;10.020;2022-11-20T13:43:07;3.80;;;3.50;;
5742;SDS011;2896;53.500;10.020;2022-11-20T13:45:40;4.20;;;3.90;;
5742;SDS011;2896;53.500;10.020;2022-11-20T13:48:18;4.70;;;4.07;;
5742;SDS011;2896;53.500;10.020;2022-11-20T13:50:49;5.67;;;5.17;;
5742;SDS011;2896;53.500;10.020;2022-11-20T13:53:33;6.17;;;4.60;;
5742;SDS011;2896;53.500;10.020;2022-11-20T13:56:14;4.07;;;3.40;;
5742;SDS011;2896;53.500;10.020;2022-11-20T13:58:52;4.93;;;4.53;;
5742;SDS011;2896;53.500;10.020;2022-11-20T14:01:28;4.87;;;4.10;;
5742;SDS011;2896;53.500;10.020;2022-11-20T14:03:57;4.37;;;3.90;;
5742;SDS011;2896;53.500;10.020;2022-11-20T14:06:25;5.03;;;4.63;;
5742;SDS011;2896;53.500;10.020;2022-11-20T14:08:54;4.50;;;4.20;;
5742;SDS011;2896;53.500;10.020;2022-11-20T14:11:22;4.07;;;3.77;;
5742;SDS011;2896;53.500;10.020;2022-11-20T14:13:56;5.13;;;4.63;;
5742;SDS011;2896;53.500;10.020;2022-11-20T14:16:25;3.87;;;3.57;;
5742;SDS011;2896;53.500;10.020;2022-11-20T14:18:53;3.17;;;2.97;;
5742;SDS011;2896;53.500;10.020;2022-11-20T14:21:25;3.23;;;3.13;;
5742;SDS011;2896;53.500;10.020;2022-11-20T14:23:53;3.00;;;2.80;;
5742;SDS011;2896;53.500;10.020;2022-11-20T14:26:28;3.90;;;3.60;;
5742;SDS011;2896;53.500;10.020;2022-11-20T14:28:56;3.83;;;3.57;;
5742;SDS011;2896;53.500;10.020;2022-11-20T14:31:24;5.10;;;4.27;;
5742;SDS011;2896;53.500;10.020;2022-11-20T14:33:53;4.00;;;3.77;;
5742;SDS011;2896;53.500;10.020;2022-11-20T14:36:21;3.80;;;3.50;;
5742;SDS011;2896;53.500;10.020;2022-11-20T14:38:50;2.70;;;2.60;;
5742;SDS011;2896;53.500;10.020;2022-11-20T14:41:18;3.83;;;3.50;;
5742;SDS011;2896;53.500;10.020;2022-11-20T14:43:46;4.20;;;3.90;;
5742;SDS011;2896;53.500;10.020;2022-11-20T14:46:17;3.53;;;3.10;;
5742;SDS011;2896;53.500;10.020;2022-11-20T14:48:45;7.13;;;3.73;;
5742;SDS011;2896;53.500;10.020;2022-11-20T14:51:23;3.10;;;2.90;;
5742;SDS011;2896;53.500;10.020;2022-11-20T14:53:54;8.20;;;4.10;;
5742;SDS011;2896;53.500;10.020;2022-11-20T14:56:21;3.13;;;3.03;;
5742;SDS011;2896;53.500;10.020;2022-11-20T14:58:55;10.00;;;4.73;;
5742;SDS011;2896;53.500;10.020;2022-11-20T15:01:26;3.30;;;3.10;;
5742;SDS011;2896;53.500;10.020;2022-11-20T15:03:59;3.60;;;3.50;;
5742;SDS011;2896;53.500;10.020;2022-11-20T15:06:27;4.27;;;4.03;;
5742;SDS011;2896;53.500;10.020;2022-11-20T15:08:56;3.90;;;3.50;;
5742;SDS011;2896;53.500;10.020;2022-11-20T15:11:25;3.40;;;3.30;;
5742;SDS011;2896;53.500;10.020;2022-11-20T15:13:56;7.00;;;4.10;;
5742;SDS011;2896;53.500;10.020;2022-11-20T15:16:25;4.17;;;3.87;;
5742;SDS011;2896;53.500;10.020;2022-11-20T15:18:53;3.70;;;3.40;;
5742;SDS011;2896;53.500;10.020;2022-11-20T15:21:20;3.67;;;3.40;;